Time,TemperatureF,DewpointF,PressureIn,WindDirection,WindDirectionDegrees,WindSpeedMPH,WindSpeedGustMPH,Humidity,HourlyPrecipIn,Conditions,Clouds,dailyrainin,SolarRadiationWatts/m^2,SoftwareType,DateUTC
2013-03-04 00:01:00,26.0,15.0,-100.00,NW,310,0.0,0.0,63,0.00,,,0.01,0.000000,,2013-03-04 08:01:00,
2013-03-04 00:32:00,25.0,15.0,-100.00,NNW,332,0.0,0.0,64,0.00,,,0.01,0.000000,,2013-03-04 08:32:00,
2013-03-04 00:42:00,25.0,15.0,-100.00,NNW,332,0.0,0.0,64,0.00,,,0.01,0.000000,,2013-03-04 08:42:00,
2013-03-04 00:52:00,25.0,15.0,-100.00,NNW,332,0.0,0.0,64,0.00,,,0.01,0.000000,,2013-03-04 08:52:00,
2013-03-04 01:01:00,25.0,15.0,-100.00,NNW,332,0.0,0.0,64,0.00,,,0.01,0.000000,,2013-03-04 09:01:00,
2013-03-04 01:32:00,25.0,15.0,-100.00,SSW,212,0.0,0.0,65,0.00,,,0.01,0.000000,,2013-03-04 09:32:00,
2013-03-04 01:42:00,25.0,15.0,-100.00,SSW,212,0.0,0.0,65,0.00,,,0.01,0.000000,,2013-03-04 09:42:00,
2013-03-04 01:52:00,25.0,15.0,-100.00,SSW,212,0.0,0.0,65,0.00,,,0.01,0.000000,,2013-03-04 09:52:00,
2013-03-04 02:01:00,25.0,15.0,-100.00,SSW,212,0.0,0.0,65,0.00,,,0.01,0.000000,,2013-03-04 10:01:00,
2013-03-04 02:32:00,24.0,15.0,-100.00,East,100,0.0,0.0,67,0.00,,,0.01,0.000000,,2013-03-04 10:32:00,
2013-03-04 02:42:00,24.0,15.0,-100.00,East,100,0.0,0.0,67,0.00,,,0.01,0.000000,,2013-03-04 10:42:00,
2013-03-04 02:52:00,24.0,15.0,-100.00,East,100,0.0,0.0,67,0.00,,,0.01,0.000000,,2013-03-04 10:52:00,
2013-03-04 03:01:00,24.0,15.0,-100.00,East,100,0.0,0.0,67,0.00,,,0.01,0.000000,,2013-03-04 11:01:00,
2013-03-04 03:32:00,25.0,13.0,-100.00,WNW,300,0.0,1.0,60,0.00,,,0.01,0.000000,,2013-03-04 11:32:00,
2013-03-04 03:42:00,25.0,13.0,-100.00,WNW,300,0.0,1.0,60,0.00,,,0.01,0.000000,,2013-03-04 11:42:00,
2013-03-04 03:52:00,25.0,13.0,-100.00,WNW,300,0.0,1.0,60,0.00,,,0.01,0.000000,,2013-03-04 11:52:00,
2013-03-04 04:01:00,25.0,13.0,-100.00,WNW,300,0.0,1.0,60,0.00,,,0.01,0.000000,,2013-03-04 12:01:00,
2013-03-04 04:32:00,25.0,13.0,-100.00,NNW,332,0.0,2.0,60,0.00,,,0.01,0.000000,,2013-03-04 12:32:00,
2013-03-04 04:42:00,25.0,13.0,-100.00,NNW,332,0.0,2.0,60,0.00,,,0.01,0.000000,,2013-03-04 12:42:00,
2013-03-04 04:53:00,25.0,13.0,-100.00,NNW,332,0.0,2.0,60,0.00,,,0.01,0.000000,,2013-03-04 12:53:00,
2013-03-04 05:02:00,25.0,13.0,-100.00,NNW,332,0.0,2.0,60,0.00,,,0.01,0.000000,,2013-03-04 13:02:00,
2013-03-04 05:32:00,26.0,12.0,-100.00,North,357,0.0,0.0,55,0.00,,,0.01,0.000000,,2013-03-04 13:32:00,
2013-03-04 05:42:00,26.0,12.0,-100.00,North,357,0.0,0.0,55,0.00,,,0.01,0.000000,,2013-03-04 13:42:00,
2013-03-04 05:52:00,26.0,12.0,-100.00,North,357,0.0,0.0,55,0.00,,,0.01,0.000000,,2013-03-04 13:52:00,
2013-03-04 06:01:00,26.0,12.0,-100.00,North,357,0.0,0.0,55,0.00,,,0.01,0.000000,,2013-03-04 14:01:00,
2013-03-04 06:32:00,25.0,12.0,-100.00,NNE,31,0.0,0.0,57,0.00,,,0.01,0.000000,,2013-03-04 14:32:00,
2013-03-04 06:42:00,25.0,12.0,-100.00,NNE,31,0.0,0.0,57,0.00,,,0.01,0.000000,,2013-03-04 14:42:00,
2013-03-04 06:52:00,25.0,12.0,-100.00,NNE,31,0.0,0.0,57,0.00,,,0.01,0.000000,,2013-03-04 14:52:00,
2013-03-04 07:01:00,25.0,12.0,-100.00,NNE,31,0.0,0.0,57,0.00,,,0.01,0.000000,,2013-03-04 15:01:00,
2013-03-04 07:32:00,26.0,13.0,-100.00,NNW,348,0.0,0.0,57,0.00,,,0.01,8.000000,,2013-03-04 15:32:00,
2013-03-04 07:42:00,26.0,13.0,-100.00,NNW,348,0.0,0.0,57,0.00,,,0.01,8.000000,,2013-03-04 15:42:00,
2013-03-04 07:52:00,26.0,13.0,-100.00,NNW,348,0.0,0.0,57,0.00,,,0.01,8.000000,,2013-03-04 15:52:00,
2013-03-04 08:02:00,26.0,13.0,-100.00,NNW,348,0.0,0.0,57,0.00,,,0.01,8.000000,,2013-03-04 16:02:00,
2013-03-04 08:32:00,33.0,18.0,-100.00,East,88,0.0,0.0,54,0.00,,,0.01,139.000000,,2013-03-04 16:32:00,
2013-03-04 09:32:00,34.0,16.0,-100.00,SSE,153,2.0,5.0,48,0.00,,,0.01,336.000000,,2013-03-04 17:32:00,
2013-03-04 09:42:00,34.0,16.0,-100.00,SSE,153,2.0,5.0,48,0.00,,,0.01,336.000000,,2013-03-04 17:42:00,
2013-03-04 09:52:00,34.0,16.0,-100.00,SSE,153,2.0,5.0,48,0.00,,,0.01,336.000000,,2013-03-04 17:52:00,
2013-03-04 10:01:00,34.0,16.0,-100.00,SSE,153,2.0,5.0,48,0.00,,,0.01,336.000000,,2013-03-04 18:01:00,
2013-03-04 10:32:00,36.0,17.0,-100.00,SE,143,1.0,7.0,46,0.00,,,0.00,413.000000,,2013-03-04 18:32:00,
2013-03-04 10:42:00,36.0,17.0,-100.00,SE,143,1.0,7.0,46,0.00,,,0.00,413.000000,,2013-03-04 18:42:00,
2013-03-04 10:52:00,36.0,17.0,-100.00,SE,143,1.0,7.0,46,0.00,,,0.00,413.000000,,2013-03-04 18:52:00,
2013-03-04 11:01:00,36.0,17.0,-100.00,SE,143,1.0,7.0,46,0.00,,,0.00,413.000000,,2013-03-04 19:01:00,
2013-03-04 11:32:00,40.0,19.0,-100.00,NNE,20,2.0,6.0,42,0.00,,,0.00,518.000000,,2013-03-04 19:32:00,
2013-03-04 12:32:00,39.0,18.0,-100.00,South,173,8.0,15.0,42,0.00,,,0.00,649.000000,,2013-03-04 20:32:00,
2013-03-04 12:42:00,39.0,18.0,-100.00,South,173,8.0,15.0,42,0.00,,,0.00,649.000000,,2013-03-04 20:42:00,
2013-03-04 12:52:00,39.0,18.0,-100.00,South,173,8.0,15.0,42,0.00,,,0.00,649.000000,,2013-03-04 20:52:00,
2013-03-04 13:01:00,39.0,18.0,-100.00,South,173,8.0,15.0,42,0.00,,,0.00,649.000000,,2013-03-04 21:01:00,
2013-03-04 13:32:00,41.0,17.0,-100.00,South,170,8.0,17.0,38,0.00,,,0.00,735.000000,,2013-03-04 21:32:00,
2013-03-04 13:43:00,41.0,17.0,-100.00,South,170,8.0,17.0,38,0.00,,,0.00,735.000000,,2013-03-04 21:43:00,
2013-03-04 13:52:00,41.0,17.0,-100.00,South,170,8.0,17.0,38,0.00,,,0.00,735.000000,,2013-03-04 21:52:00,
2013-03-04 14:01:00,41.0,17.0,-100.00,South,170,8.0,17.0,38,0.00,,,0.00,735.000000,,2013-03-04 22:01:00,
2013-03-04 14:32:00,40.0,16.0,-100.00,South,179,5.0,21.0,37,0.00,,,0.00,661.000000,,2013-03-04 22:32:00,
2013-03-04 14:43:00,40.0,16.0,-100.00,South,179,5.0,21.0,37,0.00,,,0.00,661.000000,,2013-03-04 22:43:00,
2013-03-04 14:52:00,40.0,16.0,-100.00,South,179,5.0,21.0,37,0.00,,,0.00,661.000000,,2013-03-04 22:52:00,
2013-03-04 15:01:00,40.0,16.0,-100.00,South,179,5.0,21.0,37,0.00,,,0.00,661.000000,,2013-03-04 23:01:00,
2013-03-04 15:32:00,39.0,16.0,-100.00,SSE,159,7.0,17.0,38,0.00,,,-99.99,426.000000,,2013-03-04 23:32:00,
2013-03-04 15:42:00,39.0,16.0,-100.00,SSE,159,7.0,17.0,38,0.00,,,-99.99,426.000000,,2013-03-04 23:42:00,
2013-03-04 15:52:00,39.0,16.0,-100.00,SSE,159,7.0,17.0,38,0.00,,,-99.99,426.000000,,2013-03-04 23:52:00,
2013-03-04 16:01:00,39.0,16.0,-100.00,SSE,159,7.0,17.0,38,0.00,,,-99.99,426.000000,,2013-03-05 00:01:00,
2013-03-04 16:32:00,37.0,16.0,-100.00,SE,130,4.0,14.0,41,0.00,,,0.00,256.000000,,2013-03-05 00:32:00,
2013-03-04 16:42:00,37.0,16.0,-100.00,SE,130,4.0,14.0,41,0.00,,,0.00,256.000000,,2013-03-05 00:42:00,
2013-03-04 16:52:00,37.0,16.0,-100.00,SE,130,4.0,14.0,41,0.00,,,0.00,256.000000,,2013-03-05 00:52:00,
2013-03-04 17:01:00,37.0,16.0,-100.00,SE,130,4.0,14.0,41,0.00,,,0.00,256.000000,,2013-03-05 01:01:00,
2013-03-04 18:32:00,34.0,16.0,-100.00,ENE,66,0.0,6.0,48,-99.99,,,0.00,18.000000,,2013-03-05 02:32:00,
2013-03-04 18:42:00,34.0,16.0,-100.00,ENE,66,0.0,6.0,48,-99.99,,,0.00,18.000000,,2013-03-05 02:42:00,
2013-03-04 18:52:00,34.0,16.0,-100.00,ENE,66,0.0,6.0,48,-99.99,,,0.00,18.000000,,2013-03-05 02:52:00,
2013-03-04 19:01:00,34.0,16.0,-100.00,ENE,66,0.0,6.0,48,-99.99,,,0.00,18.000000,,2013-03-05 03:01:00,
2013-03-04 19:32:00,32.0,16.0,-100.00,NE,48,0.0,4.0,52,0.00,,,0.00,0.000000,,2013-03-05 03:32:00,
2013-03-04 19:42:00,32.0,16.0,-100.00,NE,48,0.0,4.0,52,0.00,,,0.00,0.000000,,2013-03-05 03:42:00,
2013-03-04 19:52:00,32.0,16.0,-100.00,NE,48,0.0,4.0,52,0.00,,,0.00,0.000000,,2013-03-05 03:52:00,
2013-03-04 20:01:00,32.0,16.0,-100.00,NE,48,0.0,4.0,52,0.00,,,0.00,0.000000,,2013-03-05 04:01:00,
2013-03-04 20:32:00,31.0,15.0,-100.00,NE,42,0.0,4.0,52,0.00,,,0.00,0.000000,,2013-03-05 04:32:00,
2013-03-04 20:42:00,31.0,15.0,-100.00,NE,42,0.0,4.0,52,0.00,,,0.00,0.000000,,2013-03-05 04:42:00,
2013-03-04 20:52:00,31.0,15.0,-100.00,NE,42,0.0,4.0,52,0.00,,,0.00,0.000000,,2013-03-05 04:52:00,
2013-03-04 21:01:00,31.0,15.0,-100.00,NE,42,0.0,4.0,52,0.00,,,0.00,0.000000,,2013-03-05 05:01:00,
2013-03-04 21:32:00,31.0,15.0,-100.00,North,0,0.0,3.0,51,0.00,,,0.00,0.000000,,2013-03-05 05:32:00,
2013-03-04 21:42:00,31.0,15.0,-100.00,North,0,0.0,3.0,51,0.00,,,0.00,0.000000,,2013-03-05 05:42:00,
2013-03-04 21:52:00,31.0,15.0,-100.00,North,0,0.0,3.0,51,0.00,,,0.00,0.000000,,2013-03-05 05:52:00,
2013-03-04 22:01:00,31.0,15.0,-100.00,North,0,0.0,3.0,51,0.00,,,0.00,0.000000,,2013-03-05 06:01:00,
2013-03-04 22:32:00,30.0,14.0,-100.00,North,2,0.0,0.0,50,0.00,,,0.00,0.000000,,2013-03-05 06:32:00,
2013-03-04 22:42:00,30.0,14.0,-100.00,North,2,0.0,0.0,50,0.00,,,0.00,0.000000,,2013-03-05 06:42:00,
2013-03-04 22:52:00,30.0,14.0,-100.00,North,2,0.0,0.0,50,0.00,,,0.00,0.000000,,2013-03-05 06:52:00,
2013-03-04 23:01:00,30.0,14.0,-100.00,North,2,0.0,0.0,50,0.00,,,0.00,0.000000,,2013-03-05 07:01:00,
2013-03-04 23:32:00,29.0,15.0,-100.00,NW,309,0.0,0.0,56,0.00,,,0.00,0.000000,,2013-03-05 07:32:00,
2013-03-04 23:42:00,29.0,15.0,-100.00,NW,309,0.0,0.0,56,0.00,,,0.00,0.000000,,2013-03-05 07:42:00,
2013-03-04 23:52:00,29.0,15.0,-100.00,NW,309,0.0,0.0,56,0.00,,,0.00,0.000000,,2013-03-05 07:52:00,